Time;durP1;ratioP1;P1;durP2;ratioP2;P2;SDS_P1;SDS_P2;PMS_P1;PMS_P2;Temp;Humidity;BMP_temperature;BMP_pressure;BME280_temperature;BME280_humidity;BME280_pressure;Samples;Min_cycle;Max_cycle;Signal;HPM_P1;HPM_P2
2023/03/13 00:00:28;;;;;;;14.23;3.28;;;;;;;;;;4984744;28;20022;-61
2023/03/13 00:02:53;;;;;;;12.73;3.33;;;;;;;;;;4983212;28;20038;-62
2023/03/13 00:05:18;;;;;;;21.70;5.75;;;;;;;;;;4978537;28;20168;-63
2023/03/13 00:07:44;;;;;;;18.90;5.35;;;;;;;;;;4980889;28;20076;-60
2023/03/13 00:10:09;;;;;;;19.90;5.85;;;;;;;;;;4982400;28;20387;-61
2023/03/13 00:12:34;;;;;;;14.20;4.10;;;;;;;;;;4983580;28;20423;-65
2023/03/13 00:14:59;;;;;;;15.70;4.20;;;;;;;;;;4979071;28;20089;-61
2023/03/13 00:17:25;;;;;;;16.60;4.72;;;;;;;;;;4984083;28;20435;-60
2023/03/13 00:19:50;;;;;;;21.80;4.88;;;;;;;;;;4982988;28;20042;-60
2023/03/13 00:22:15;;;;;;;15.23;4.75;;;;;;;;;;4981698;28;20054;-61
2023/03/13 00:24:41;;;;;;;19.00;4.90;;;;;;;;;;4981781;28;20122;-62
2023/03/13 00:27:06;;;;;;;17.67;4.30;;;;;;;;;;4979617;28;20034;-61
2023/03/13 00:29:32;;;;;;;18.27;4.07;;;;;;;;;;4985638;28;20037;-62
2023/03/13 00:31:57;;;;;;;16.38;4.10;;;;;;;;;;4987734;28;20056;-62
2023/03/13 00:34:26;;;;;;;11.95;3.53;;;;;;;;;;4985581;28;20495;-61
2023/03/13 00:36:52;;;;;;;12.65;4.05;;;;;;;;;;4982527;28;20109;-59
2023/03/13 00:39:17;;;;;;;11.70;3.47;;;;;;;;;;4985702;28;20042;-58
2023/03/13 00:41:43;;;;;;;16.65;3.78;;;;;;;;;;4985887;28;20514;-60
2023/03/13 00:44:08;;;;;;;13.80;3.65;;;;;;;;;;4984520;28;20030;-60
2023/03/13 00:46:34;;;;;;;12.43;3.60;;;;;;;;;;4985339;28;20050;-61
2023/03/13 00:48:59;;;;;;;15.25;3.97;;;;;;;;;;4986990;28;20036;-59
2023/03/13 00:51:25;;;;;;;16.42;3.80;;;;;;;;;;4984507;28;20518;-62
2023/03/13 00:53:51;;;;;;;14.82;3.63;;;;;;;;;;4987654;28;20030;-59
2023/03/13 00:56:17;;;;;;;16.05;3.67;;;;;;;;;;4986779;28;20108;-60
2023/03/13 00:58:43;;;;;;;16.40;3.83;;;;;;;;;;4984295;28;20034;-60
2023/03/13 01:01:19;;;;;;;17.83;3.95;;;;;;;;;;4984270;28;20031;-61
2023/03/13 01:03:46;;;;;;;18.40;4.65;;;;;;;;;;4984035;28;20038;-61
2023/03/13 01:06:13;;;;;;;14.90;3.78;;;;;;;;;;4985596;28;20030;-62
2023/03/13 01:08:38;;;;;;;12.57;3.50;;;;;;;;;;4984835;28;20065;-63
2023/03/13 01:11:05;;;;;;;18.15;3.72;;;;;;;;;;4983798;28;20166;-60
2023/03/13 01:13:34;;;;;;;16.08;3.50;;;;;;;;;;4984702;28;20126;-61
2023/03/13 01:16:04;;;;;;;17.23;3.83;;;;;;;;;;4983471;28;21214;-60
2023/03/13 01:18:30;;;;;;;12.43;3.13;;;;;;;;;;4984172;28;20038;-60
2023/03/13 01:20:55;;;;;;;11.13;2.80;;;;;;;;;;4983367;28;20041;-61
2023/03/13 01:23:21;;;;;;;12.93;3.13;;;;;;;;;;4985146;28;20529;-60
2023/03/13 01:25:46;;;;;;;12.32;2.97;;;;;;;;;;4986044;28;20460;-60
2023/03/13 01:28:12;;;;;;;14.68;3.40;;;;;;;;;;4982274;28;20093;-62
2023/03/13 01:30:37;;;;;;;20.23;4.82;;;;;;;;;;4981664;28;20728;-62
2023/03/13 01:33:02;;;;;;;12.20;3.45;;;;;;;;;;4985080;28;20064;-60
2023/03/13 01:35:28;;;;;;;13.30;3.22;;;;;;;;;;4979897;28;20726;-61
2023/03/13 01:37:53;;;;;;;18.02;3.70;;;;;;;;;;4983337;28;20026;-62
2023/03/13 01:40:18;;;;;;;14.07;3.67;;;;;;;;;;4983894;28;20027;-61
2023/03/13 01:42:54;;;;;;;13.25;3.30;;;;;;;;;;4983835;28;20034;-62
2023/03/13 01:45:38;;;;;;;12.43;2.95;;;;;;;;;;4987667;28;20042;-62
2023/03/13 01:48:04;;;;;;;12.13;3.38;;;;;;;;;;4984153;28;20109;-61
2023/03/13 01:50:43;;;;;;;15.10;3.25;;;;;;;;;;4983078;28;20063;-62
2023/03/13 01:53:18;;;;;;;14.18;4.07;;;;;;;;;;4982746;28;20034;-64
2023/03/13 01:55:43;;;;;;;15.77;3.45;;;;;;;;;;4967993;28;20060;-61
2023/03/13 01:58:08;;;;;;;17.33;3.70;;;;;;;;;;4984793;28;20022;-61
2023/03/13 02:00:35;;;;;;;11.73;3.33;;;;;;;;;;4984909;28;20029;-64
2023/03/13 02:03:05;;;;;;;13.07;3.15;;;;;;;;;;4985301;28;20030;-61
2023/03/13 02:05:32;;;;;;;13.10;3.00;;;;;;;;;;4982423;28;20483;-62
2023/03/13 02:08:05;;;;;;;11.75;3.00;;;;;;;;;;4981564;28;20149;-61
2023/03/13 02:10:33;;;;;;;13.55;3.53;;;;;;;;;;4983048;28;20034;-62
2023/03/13 02:12:59;;;;;;;15.85;3.30;;;;;;;;;;4984693;28;20117;-61
2023/03/13 02:15:26;;;;;;;9.82;2.78;;;;;;;;;;4982733;28;20046;-60
2023/03/13 02:17:53;;;;;;;12.57;3.03;;;;;;;;;;4982460;28;20054;-64
2023/03/13 02:20:22;;;;;;;9.45;2.53;;;;;;;;;;4982776;28;20032;-61
2023/03/13 02:22:49;;;;;;;13.75;2.80;;;;;;;;;;4999141;28;20563;-60
2023/03/13 02:25:22;;;;;;;14.50;3.05;;;;;;;;;;4982688;28;20058;-63
2023/03/13 02:27:57;;;;;;;11.50;2.83;;;;;;;;;;4982564;28;20084;-62
2023/03/13 02:30:23;;;;;;;12.45;2.63;;;;;;;;;;4991844;28;20034;-62
2023/03/13 02:32:49;;;;;;;10.75;3.13;;;;;;;;;;4984430;28;20034;-60
2023/03/13 02:35:16;;;;;;;8.30;2.50;;;;;;;;;;4982396;28;20038;-61
2023/03/13 02:37:42;;;;;;;12.90;3.22;;;;;;;;;;4983067;28;20034;-60
2023/03/13 02:40:15;;;;;;;9.48;3.10;;;;;;;;;;4982369;28;20821;-61
2023/03/13 02:42:42;;;;;;;9.10;2.30;;;;;;;;;;4983906;28;20026;-62
2023/03/13 02:45:08;;;;;;;10.90;2.97;;;;;;;;;;4982172;28;20655;-64
2023/03/13 02:47:34;;;;;;;9.23;2.70;;;;;;;;;;4981615;28;20034;-60
2023/03/13 02:49:59;;;;;;;8.60;2.45;;;;;;;;;;4981474;28;20034;-60
2023/03/13 02:52:36;;;;;;;11.88;3.00;;;;;;;;;;4981992;28;20495;-59
2023/03/13 02:55:05;;;;;;;11.82;2.60;;;;;;;;;;4975024;28;20065;-59
2023/03/13 02:57:30;;;;;;;10.82;2.70;;;;;;;;;;4965992;28;20034;-61
2023/03/13 02:59:56;;;;;;;9.95;2.63;;;;;;;;;;4983063;28;20049;-61
2023/03/13 03:02:22;;;;;;;7.60;2.30;;;;;;;;;;4989204;28;20035;-59
2023/03/13 03:04:48;;;;;;;8.63;2.60;;;;;;;;;;4978937;28;20025;-60
2023/03/13 03:07:13;;;;;;;9.05;2.42;;;;;;;;;;4983180;28;20128;-60
2023/03/13 03:09:38;;;;;;;11.95;2.42;;;;;;;;;;4980943;28;20038;-60
2023/03/13 03:12:09;;;;;;;7.47;2.10;;;;;;;;;;4967927;28;20694;-60
2023/03/13 03:14:34;;;;;;;8.43;2.50;;;;;;;;;;4983157;28;20035;-60
2023/03/13 03:17:00;;;;;;;11.25;2.53;;;;;;;;;;4980988;28;20030;-60
2023/03/13 03:19:26;;;;;;;12.15;2.83;;;;;;;;;;4982998;28;20037;-62
2023/03/13 03:21:51;;;;;;;9.27;2.03;;;;;;;;;;4980462;28;20116;-61
2023/03/13 03:24:17;;;;;;;12.88;2.85;;;;;;;;;;4983779;28;20038;-60
2023/03/13 03:26:43;;;;;;;9.85;2.40;;;;;;;;;;4982790;28;20638;-60
2023/03/13 03:29:15;;;;;;;9.70;2.10;;;;;;;;;;4981322;28;20033;-61
2023/03/13 03:31:41;;;;;;;8.57;2.28;;;;;;;;;;4981174;28;20030;-62
2023/03/13 03:34:07;;;;;;;8.20;2.50;;;;;;;;;;4982398;28;20037;-60
2023/03/13 03:36:33;;;;;;;7.88;2.38;;;;;;;;;;4980666;28;20042;-60
2023/03/13 03:38:59;;;;;;;7.80;2.72;;;;;;;;;;4976027;28;20034;-60
2023/03/13 03:41:25;;;;;;;5.47;2.25;;;;;;;;;;4980614;28;20080;-62
2023/03/13 03:43:52;;;;;;;8.15;2.20;;;;;;;;;;4983483;28;20684;-61
2023/03/13 03:46:21;;;;;;;7.72;2.38;;;;;;;;;;4980865;28;20041;-61
2023/03/13 03:48:46;;;;;;;7.20;2.55;;;;;;;;;;4982398;28;20533;-61
2023/03/13 03:51:12;;;;;;;6.25;2.47;;;;;;;;;;4980664;28;20683;-60
2023/03/13 03:53:40;;;;;;;13.13;2.60;;;;;;;;;;4968020;28;20717;-61
2023/03/13 03:56:06;;;;;;;9.38;2.55;;;;;;;;;;4979776;28;20042;-62
2023/03/13 03:58:31;;;;;;;10.10;2.60;;;;;;;;;;4981261;28;20099;-60
2023/03/13 04:01:29;;;;;;;7.32;2.20;;;;;;;;;;4980695;28;20035;-62
2023/03/13 04:03:54;;;;;;;7.60;2.50;;;;;;;;;;4987000;28;20052;-62
2023/03/13 04:06:19;;;;;;;8.65;2.42;;;;;;;;;;4984226;28;20085;-60
2023/03/13 04:08:46;;;;;;;12.30;3.17;;;;;;;;;;4984724;28;20027;-61
2023/03/13 04:11:14;;;;;;;7.22;2.72;;;;;;;;;;4985404;28;20031;-60
2023/03/13 04:13:45;;;;;;;8.77;2.30;;;;;;;;;;4985486;28;20026;-61
2023/03/13 04:16:11;;;;;;;8.52;2.50;;;;;;;;;;4986122;28;20092;-61
2023/03/13 04:18:37;;;;;;;9.95;2.33;;;;;;;;;;4985739;28;20084;-60
2023/03/13 04:21:04;;;;;;;8.52;2.45;;;;;;;;;;4967560;28;20521;-62
2023/03/13 04:23:35;;;;;;;5.78;2.30;;;;;;;;;;4987119;28;20043;-61
2023/03/13 04:26:01;;;;;;;6.03;2.10;;;;;;;;;;4987109;28;20030;-61
2023/03/13 04:28:26;;;;;;;5.75;1.98;;;;;;;;;;4987695;28;20117;-64
2023/03/13 04:30:56;;;;;;;10.18;2.75;;;;;;;;;;4983856;28;20038;-61
2023/03/13 04:33:54;;;;;;;6.22;2.50;;;;;;;;;;4982577;28;20116;-59
2023/03/13 04:36:28;;;;;;;5.55;2.45;;;;;;;;;;4984772;28;20046;-60
2023/03/13 04:39:16;;;;;;;8.27;2.38;;;;;;;;;;4986255;28;20077;-60
2023/03/13 04:41:57;;;;;;;8.00;2.58;;;;;;;;;;4984656;28;20450;-60
2023/03/13 04:44:42;;;;;;;5.50;2.00;;;;;;;;;;4985634;28;20084;-61
2023/03/13 04:47:18;;;;;;;7.30;1.92;;;;;;;;;;4984555;28;20041;-60
2023/03/13 04:50:07;;;;;;;4.07;1.90;;;;;;;;;;4981420;28;20038;-59
2023/03/13 04:52:43;;;;;;;9.63;2.03;;;;;;;;;;4982844;28;20307;-62
2023/03/13 04:55:27;;;;;;;4.97;1.73;;;;;;;;;;4995197;28;20050;-63
2023/03/13 04:58:01;;;;;;;3.88;1.88;;;;;;;;;;4983883;28;20624;-60
2023/03/13 05:00:52;;;;;;;3.45;1.50;;;;;;;;;;4981680;28;20049;-61
2023/03/13 05:03:32;;;;;;;4.60;1.60;;;;;;;;;;4984518;28;20100;-62
2023/03/13 05:06:14;;;;;;;3.65;1.75;;;;;;;;;;4982312;28;20033;-60
2023/03/13 05:09:02;;;;;;;6.93;1.80;;;;;;;;;;4982094;28;20045;-62
2023/03/13 05:11:49;;;;;;;3.50;1.27;;;;;;;;;;4983651;28;20411;-62
2023/03/13 05:14:33;;;;;;;2.55;1.45;;;;;;;;;;4984125;28;20045;-62
2023/03/13 05:17:17;;;;;;;4.30;1.60;;;;;;;;;;4982013;28;20095;-59
2023/03/13 05:20:08;;;;;;;2.80;1.38;;;;;;;;;;4982070;28;20037;-60
2023/03/13 05:22:54;;;;;;;3.38;1.40;;;;;;;;;;4982568;28;20093;-60
2023/03/13 05:25:44;;;;;;;1.42;1.13;;;;;;;;;;4983916;28;20089;-61
2023/03/13 05:28:28;;;;;;;4.82;1.55;;;;;;;;;;4982687;28;20046;-61
2023/03/13 05:31:07;;;;;;;3.15;1.35;;;;;;;;;;4981241;28;20038;-62
2023/03/13 05:33:48;;;;;;;2.70;1.20;;;;;;;;;;4982677;28;20736;-58
2023/03/13 05:36:16;;;;;;;3.65;1.48;;;;;;;;;;4983700;28;21007;-61
2023/03/13 05:39:01;;;;;;;2.10;1.30;;;;;;;;;;4981542;28;20058;-58
2023/03/13 05:42:02;;;;;;;3.42;1.30;;;;;;;;;;4980990;28;20133;-61
2023/03/13 05:44:48;;;;;;;3.70;1.48;;;;;;;;;;4983915;28;20048;-58
2023/03/13 05:47:32;;;;;;;2.55;1.10;;;;;;;;;;4982960;28;20049;-60
2023/03/13 05:50:16;;;;;;;2.97;1.30;;;;;;;;;;4982105;28;20080;-62
2023/03/13 05:53:00;;;;;;;2.13;1.20;;;;;;;;;;4983772;28;20045;-61
2023/03/13 05:55:54;;;;;;;2.58;1.30;;;;;;;;;;4944416;28;1064073;-61
2023/03/13 05:58:38;;;;;;;2.20;1.25;;;;;;;;;;4984994;28;20094;-59
2023/03/13 06:01:30;;;;;;;2.65;1.33;;;;;;;;;;4983467;28;20161;-59
2023/03/13 06:04:01;;;;;;;2.67;1.35;;;;;;;;;;4979069;28;20038;-59
2023/03/13 06:06:26;;;;;;;2.55;1.33;;;;;;;;;;4983942;28;20432;-63
2023/03/13 06:08:54;;;;;;;2.00;1.40;;;;;;;;;;4983627;28;20030;-58
2023/03/13 06:11:21;;;;;;;5.45;1.90;;;;;;;;;;4981069;28;20069;-59
2023/03/13 06:13:46;;;;;;;5.15;1.50;;;;;;;;;;4978102;28;21107;-61
2023/03/13 06:16:22;;;;;;;3.85;1.40;;;;;;;;;;4966521;28;20049;-60
2023/03/13 06:18:48;;;;;;;3.05;1.30;;;;;;;;;;4980555;28;20022;-59
2023/03/13 06:21:14;;;;;;;2.60;1.30;;;;;;;;;;4981474;28;20041;-60
2023/03/13 06:23:41;;;;;;;3.58;1.73;;;;;;;;;;4980455;28;20038;-61
2023/03/13 06:26:06;;;;;;;2.35;1.45;;;;;;;;;;4978055;28;20030;-60
2023/03/13 06:28:31;;;;;;;2.30;1.30;;;;;;;;;;4980187;28;20096;-60
2023/03/13 06:31:03;;;;;;;2.47;1.30;;;;;;;;;;4978974;28;21627;-61
2023/03/13 06:33:29;;;;;;;2.63;1.40;;;;;;;;;;4980928;28;20650;-60
2023/03/13 06:35:55;;;;;;;2.08;1.27;;;;;;;;;;4980637;28;20494;-59
2023/03/13 06:38:21;;;;;;;2.83;1.55;;;;;;;;;;4977763;28;20056;-59
2023/03/13 06:40:46;;;;;;;4.07;1.27;;;;;;;;;;4985363;28;20506;-61
2023/03/13 06:43:11;;;;;;;3.08;1.75;;;;;;;;;;4980718;28;20030;-61
2023/03/13 06:45:37;;;;;;;3.92;1.50;;;;;;;;;;4981973;28;20113;-60
2023/03/13 06:48:02;;;;;;;2.90;1.60;;;;;;;;;;4981486;28;20514;-60
2023/03/13 06:50:28;;;;;;;1.98;1.30;;;;;;;;;;4977254;28;20120;-60
2023/03/13 06:52:53;;;;;;;2.72;1.30;;;;;;;;;;4982276;28;20122;-59
2023/03/13 06:55:19;;;;;;;5.57;1.58;;;;;;;;;;4981346;28;20034;-60
2023/03/13 06:57:48;;;;;;;3.08;1.50;;;;;;;;;;4980770;28;20026;-61
2023/03/13 07:00:13;;;;;;;2.00;1.30;;;;;;;;;;4982684;28;20302;-59
2023/03/13 07:02:38;;;;;;;1.52;1.13;;;;;;;;;;4982984;28;20026;-60
2023/03/13 07:05:04;;;;;;;1.52;1.20;;;;;;;;;;4979411;28;20030;-61
2023/03/13 07:07:31;;;;;;;2.28;1.25;;;;;;;;;;4982906;28;20091;-63
2023/03/13 07:09:57;;;;;;;2.67;1.20;;;;;;;;;;4976720;28;20058;-60
2023/03/13 07:12:22;;;;;;;2.13;1.35;;;;;;;;;;4975996;28;20460;-62
2023/03/13 07:14:47;;;;;;;2.08;1.30;;;;;;;;;;4983550;28;20125;-60
2023/03/13 07:17:13;;;;;;;3.10;1.60;;;;;;;;;;4984475;28;20034;-61
2023/03/13 07:19:38;;;;;;;1.63;1.20;;;;;;;;;;4978818;28;20157;-61
2023/03/13 07:22:03;;;;;;;3.55;1.35;;;;;;;;;;4978258;28;20439;-59
2023/03/13 07:24:28;;;;;;;2.50;1.38;;;;;;;;;;4980759;28;20037;-60
2023/03/13 07:26:54;;;;;;;3.55;1.50;;;;;;;;;;4976976;28;20034;-58
2023/03/13 07:29:19;;;;;;;1.20;1.10;;;;;;;;;;4980249;28;20510;-60
2023/03/13 07:31:44;;;;;;;3.33;1.38;;;;;;;;;;4980670;28;20034;-61
2023/03/13 07:34:10;;;;;;;1.40;1.27;;;;;;;;;;4979774;28;20121;-60
2023/03/13 07:36:35;;;;;;;1.23;1.10;;;;;;;;;;4981635;28;20680;-61
2023/03/13 07:39:00;;;;;;;2.42;1.60;;;;;;;;;;4982892;28;20736;-61
2023/03/13 07:41:26;;;;;;;1.88;1.30;;;;;;;;;;4981993;28;20041;-59
2023/03/13 07:43:51;;;;;;;2.35;1.38;;;;;;;;;;4981266;28;20462;-59
2023/03/13 07:46:17;;;;;;;2.05;1.20;;;;;;;;;;4980999;28;20026;-61
2023/03/13 07:48:42;;;;;;;1.85;1.33;;;;;;;;;;4982353;28;20041;-61
2023/03/13 07:51:12;;;;;;;1.75;1.17;;;;;;;;;;4981364;28;20022;-59
2023/03/13 07:53:38;;;;;;;1.73;1.20;;;;;;;;;;4982394;28;20567;-59
2023/03/13 07:56:04;;;;;;;1.88;1.35;;;;;;;;;;4983422;28;20038;-60
2023/03/13 07:58:31;;;;;;;1.42;1.33;;;;;;;;;;4982693;28;20512;-60
2023/03/13 08:00:57;;;;;;;3.05;1.27;;;;;;;;;;4981823;28;20034;-60
2023/03/13 08:03:22;;;;;;;1.65;1.40;;;;;;;;;;4981754;28;20038;-59
2023/03/13 08:06:01;;;;;;;3.53;1.40;;;;;;;;;;4981966;28;20030;-60
2023/03/13 08:08:27;;;;;;;5.00;1.65;;;;;;;;;;4981130;28;20038;-60
2023/03/13 08:10:52;;;;;;;3.25;1.30;;;;;;;;;;4982278;28;20026;-60
2023/03/13 08:13:17;;;;;;;3.83;1.50;;;;;;;;;;4980386;28;20106;-62
2023/03/13 08:15:42;;;;;;;2.63;1.65;;;;;;;;;;4981339;28;20120;-60
2023/03/13 08:18:08;;;;;;;2.85;1.85;;;;;;;;;;4964380;28;20085;-60
2023/03/13 08:20:33;;;;;;;2.15;1.50;;;;;;;;;;4983680;28;20775;-59
2023/03/13 08:22:58;;;;;;;1.65;1.30;;;;;;;;;;4980293;28;20033;-64
2023/03/13 08:25:24;;;;;;;1.58;1.20;;;;;;;;;;4978307;28;20038;-58
2023/03/13 08:27:49;;;;;;;2.10;1.52;;;;;;;;;;4981554;28;20054;-59
2023/03/13 08:30:14;;;;;;;1.00;1.00;;;;;;;;;;4984100;28;20107;-60
2023/03/13 08:32:40;;;;;;;3.55;1.85;;;;;;;;;;4977675;28;20561;-60
2023/03/13 08:35:05;;;;;;;8.82;5.65;;;;;;;;;;4978535;28;20137;-60
2023/03/13 08:37:30;;;;;;;1.70;1.25;;;;;;;;;;4979888;28;20053;-60
2023/03/13 08:39:56;;;;;;;4.57;2.67;;;;;;;;;;4982969;28;20041;-60
2023/03/13 08:42:22;;;;;;;8.13;2.42;;;;;;;;;;4982123;28;20038;-60
2023/03/13 08:44:47;;;;;;;1.73;1.13;;;;;;;;;;4977475;28;20033;-59
2023/03/13 08:47:12;;;;;;;1.63;1.20;;;;;;;;;;4978097;28;20121;-59
2023/03/13 08:49:38;;;;;;;1.95;1.27;;;;;;;;;;4981393;28;20529;-61
2023/03/13 08:52:04;;;;;;;2.00;1.20;;;;;;;;;;4984985;28;20038;-60
2023/03/13 08:54:29;;;;;;;1.17;1.08;;;;;;;;;;4985014;28;20041;-60
2023/03/13 08:56:54;;;;;;;2.78;1.30;;;;;;;;;;4981413;28;20257;-60
2023/03/13 08:59:20;;;;;;;3.20;1.27;;;;;;;;;;4981904;28;20106;-61
2023/03/13 09:01:46;;;;;;;1.83;1.20;;;;;;;;;;4980809;28;20034;-60
2023/03/13 09:04:11;;;;;;;2.17;1.27;;;;;;;;;;4982649;28;20022;-59
2023/03/13 09:06:37;;;;;;;2.10;1.30;;;;;;;;;;4983044;28;20125;-61
2023/03/13 09:09:03;;;;;;;1.60;1.08;;;;;;;;;;4983724;28;20026;-61
2023/03/13 09:11:28;;;;;;;3.38;1.30;;;;;;;;;;4978726;28;20035;-62
2023/03/13 09:13:54;;;;;;;1.98;1.15;;;;;;;;;;4982948;28;20045;-59
2023/03/13 09:16:20;;;;;;;3.58;1.38;;;;;;;;;;4980852;28;20738;-63
2023/03/13 09:18:46;;;;;;;1.70;1.27;;;;;;;;;;4983236;28;20607;-61
2023/03/13 09:21:16;;;;;;;1.60;1.17;;;;;;;;;;4981220;28;20026;-59
2023/03/13 09:23:41;;;;;;;2.88;1.40;;;;;;;;;;4984625;28;20037;-60
2023/03/13 09:26:06;;;;;;;2.55;1.10;;;;;;;;;;4978571;28;20034;-60
2023/03/13 09:28:32;;;;;;;2.20;1.50;;;;;;;;;;4979597;28;20038;-61
2023/03/13 09:31:07;;;;;;;1.88;1.30;;;;;;;;;;4980685;28;20070;-62
2023/03/13 09:33:33;;;;;;;3.05;1.48;;;;;;;;;;4979995;28;20065;-62
2023/03/13 09:35:58;;;;;;;4.68;1.60;;;;;;;;;;4976540;28;20097;-60
2023/03/13 09:38:24;;;;;;;1.88;1.40;;;;;;;;;;4984456;28;20042;-59
2023/03/13 09:40:50;;;;;;;2.47;1.55;;;;;;;;;;4984796;28;20030;-62
2023/03/13 09:43:31;;;;;;;3.35;1.73;;;;;;;;;;4981163;28;20179;-60
2023/03/13 09:45:59;;;;;;;2.88;1.40;;;;;;;;;;4980671;28;20038;-61
2023/03/13 09:48:25;;;;;;;3.47;1.70;;;;;;;;;;4982354;28;20702;-60
2023/03/13 09:50:58;;;;;;;5.78;1.90;;;;;;;;;;4978681;28;20133;-60
2023/03/13 09:53:33;;;;;;;3.25;1.63;;;;;;;;;;4981798;28;20264;-59
2023/03/13 09:55:59;;;;;;;4.30;1.95;;;;;;;;;;4980986;28;20035;-60
2023/03/13 09:58:27;;;;;;;5.00;1.60;;;;;;;;;;4981910;28;20034;-62
2023/03/13 10:00:56;;;;;;;3.38;1.70;;;;;;;;;;4975092;28;20062;-60
2023/03/13 10:03:21;;;;;;;3.83;1.70;;;;;;;;;;4979841;28;20038;-63
2023/03/13 10:05:48;;;;;;;3.13;1.58;;;;;;;;;;4984210;28;20510;-60
2023/03/13 10:08:22;;;;;;;4.25;1.50;;;;;;;;;;4978097;28;20066;-60
2023/03/13 10:11:02;;;;;;;3.78;1.70;;;;;;;;;;4982165;28;20026;-60
2023/03/13 10:13:30;;;;;;;3.03;1.48;;;;;;;;;;4982064;28;20655;-59
2023/03/13 10:16:10;;;;;;;4.53;1.60;;;;;;;;;;4985610;28;20498;-63
2023/03/13 10:18:35;;;;;;;2.53;1.50;;;;;;;;;;4982126;28;20495;-59
2023/03/13 10:21:11;;;;;;;4.32;1.98;;;;;;;;;;4979699;28;20034;-61
2023/03/13 10:23:36;;;;;;;3.05;1.50;;;;;;;;;;4982022;28;20034;-64
2023/03/13 10:26:01;;;;;;;2.80;1.50;;;;;;;;;;4980973;28;20041;-60
2023/03/13 10:28:26;;;;;;;3.63;1.88;;;;;;;;;;4980356;28;20577;-63
2023/03/13 10:30:56;;;;;;;3.75;1.63;;;;;;;;;;4983535;28;20034;-60
2023/03/13 10:33:25;;;;;;;3.38;1.60;;;;;;;;;;4982530;28;20042;-60
2023/03/13 10:36:01;;;;;;;3.03;1.83;;;;;;;;;;4981350;28;20080;-60
2023/03/13 10:38:26;;;;;;;2.75;1.50;;;;;;;;;;4982526;28;20023;-62
2023/03/13 10:40:56;;;;;;;3.00;1.52;;;;;;;;;;4982079;28;20076;-60
2023/03/13 10:43:23;;;;;;;3.25;1.90;;;;;;;;;;4983279;28;20596;-59
2023/03/13 10:45:49;;;;;;;3.63;1.60;;;;;;;;;;4977985;28;20034;-59
2023/03/13 10:48:20;;;;;;;7.43;1.85;;;;;;;;;;4982971;28;20781;-58
2023/03/13 10:50:48;;;;;;;5.80;1.67;;;;;;;;;;4984066;28;20037;-59
2023/03/13 10:53:34;;;;;;;3.70;1.55;;;;;;;;;;4985274;28;20582;-58
2023/03/13 10:56:03;;;;;;;5.22;1.67;;;;;;;;;;4978828;28;20179;-59
2023/03/13 10:58:28;;;;;;;2.45;1.65;;;;;;;;;;4982623;28;20050;-60
2023/03/13 11:01:08;;;;;;;3.50;1.80;;;;;;;;;;4981798;28;20480;-58
2023/03/13 11:03:33;;;;;;;3.67;1.80;;;;;;;;;;4982912;28;20041;-55
2023/03/13 11:06:00;;;;;;;6.32;2.15;;;;;;;;;;4982235;28;20026;-60
2023/03/13 11:08:27;;;;;;;2.40;1.65;;;;;;;;;;4982005;28;20053;-57
2023/03/13 11:10:56;;;;;;;2.53;1.80;;;;;;;;;;4983057;28;20034;-57
2023/03/13 11:13:26;;;;;;;3.03;1.70;;;;;;;;;;4980093;28;20072;-59
2023/03/13 11:15:56;;;;;;;1.92;1.60;;;;;;;;;;4979603;28;20078;-58
2023/03/13 11:18:25;;;;;;;3.92;1.75;;;;;;;;;;4983337;28;20092;-61
2023/03/13 11:20:51;;;;;;;4.03;1.80;;;;;;;;;;4977813;28;20041;-58
2023/03/13 11:23:33;;;;;;;2.90;1.70;;;;;;;;;;4983506;28;20088;-58
2023/03/13 11:26:00;;;;;;;3.63;1.70;;;;;;;;;;4979883;28;20034;-57
2023/03/13 11:28:28;;;;;;;5.80;2.75;;;;;;;;;;4981704;28;20038;-58
2023/03/13 11:31:13;;;;;;;2.40;1.50;;;;;;;;;;4997454;28;20036;-58
2023/03/13 11:34:04;;;;;;;4.55;2.00;;;;;;;;;;4984610;28;20026;-57
2023/03/13 11:36:56;;;;;;;4.15;1.85;;;;;;;;;;4984103;28;20108;-57
2023/03/13 11:39:30;;;;;;;6.32;2.10;;;;;;;;;;4989739;28;20046;-58
2023/03/13 11:41:56;;;;;;;3.33;1.77;;;;;;;;;;4986188;28;20030;-59
2023/03/13 11:44:27;;;;;;;2.92;1.80;;;;;;;;;;4990817;28;20450;-58
2023/03/13 11:47:11;;;;;;;4.47;1.77;;;;;;;;;;4989110;28;20034;-59
2023/03/13 11:49:55;;;;;;;4.80;1.73;;;;;;;;;;4980893;28;20034;-60
2023/03/13 11:52:39;;;;;;;2.75;1.88;;;;;;;;;;4984608;28;20519;-58
2023/03/13 11:55:10;;;;;;;4.13;1.70;;;;;;;;;;4979614;28;20793;-58
2023/03/13 11:57:54;;;;;;;6.40;1.85;;;;;;;;;;4983392;28;20041;-58
2023/03/13 12:00:21;;;;;;;3.20;1.63;;;;;;;;;;4982380;28;20054;-63
2023/03/13 12:02:50;;;;;;;3.55;1.58;;;;;;;;;;4981937;28;20582;-61
2023/03/13 12:05:17;;;;;;;3.63;1.60;;;;;;;;;;4981617;28;20061;-61
2023/03/13 12:08:05;;;;;;;5.05;1.77;;;;;;;;;;4980901;28;20042;-62
2023/03/13 12:10:30;;;;;;;4.90;1.77;;;;;;;;;;4980831;28;20132;-59
2023/03/13 12:13:14;;;;;;;3.47;1.77;;;;;;;;;;4982348;28;20780;-61
2023/03/13 12:15:45;;;;;;;4.80;1.63;;;;;;;;;;4985262;28;20054;-58
2023/03/13 12:18:29;;;;;;;3.10;1.92;;;;;;;;;;4983359;28;20062;-62
2023/03/13 12:20:55;;;;;;;4.25;1.90;;;;;;;;;;4979196;28;20073;-59
2023/03/13 12:23:43;;;;;;;2.93;1.70;;;;;;;;;;4982088;28;20058;-58
2023/03/13 12:26:15;;;;;;;3.28;1.98;;;;;;;;;;4975351;28;20073;-62
2023/03/13 12:28:59;;;;;;;3.50;1.60;;;;;;;;;;4985923;28;20035;-60
2023/03/13 12:31:32;;;;;;;3.00;1.48;;;;;;;;;;4983379;28;20071;-60
2023/03/13 12:34:10;;;;;;;4.57;1.80;;;;;;;;;;4984686;28;20403;-58
2023/03/13 12:36:47;;;;;;;2.55;1.50;;;;;;;;;;4986404;28;20038;-57
2023/03/13 12:39:18;;;;;;;4.80;1.60;;;;;;;;;;4986330;28;20135;-57
2023/03/13 12:41:47;;;;;;;2.20;1.40;;;;;;;;;;4985082;28;20034;-58
2023/03/13 12:44:18;;;;;;;5.07;1.52;;;;;;;;;;4984083;28;20104;-56
2023/03/13 12:46:47;;;;;;;3.40;1.67;;;;;;;;;;4984766;28;20069;-57
2023/03/13 12:49:31;;;;;;;3.95;1.40;;;;;;;;;;4982261;28;20038;-59
2023/03/13 12:52:11;;;;;;;4.40;1.70;;;;;;;;;;4987440;28;20037;-60
2023/03/13 12:54:55;;;;;;;2.72;1.48;;;;;;;;;;4986704;28;20038;-57
2023/03/13 12:57:20;;;;;;;2.53;1.60;;;;;;;;;;4982452;28;20038;-58
2023/03/13 12:59:52;;;;;;;4.72;1.88;;;;;;;;;;4983096;28;20080;-58
2023/03/13 13:02:22;;;;;;;5.25;1.55;;;;;;;;;;4982573;28;20442;-56
2023/03/13 13:04:49;;;;;;;3.97;1.75;;;;;;;;;;4980744;28;20034;-58
2023/03/13 13:07:34;;;;;;;2.35;1.60;;;;;;;;;;4983251;28;20475;-58
2023/03/13 13:10:09;;;;;;;2.80;1.52;;;;;;;;;;4986229;28;20538;-60
2023/03/13 13:12:41;;;;;;;1.73;1.48;;;;;;;;;;4987120;28;20026;-59
2023/03/13 13:15:24;;;;;;;5.43;1.92;;;;;;;;;;4982297;28;20041;-57
2023/03/13 13:17:56;;;;;;;3.60;1.45;;;;;;;;;;4984185;28;20053;-57
2023/03/13 13:20:24;;;;;;;3.95;1.63;;;;;;;;;;4982195;28;20026;-58
2023/03/13 13:22:49;;;;;;;1.73;1.30;;;;;;;;;;4985656;28;20687;-58
2023/03/13 13:25:34;;;;;;;3.43;1.60;;;;;;;;;;4986768;28;20069;-57
2023/03/13 13:28:11;;;;;;;3.67;1.60;;;;;;;;;;4985715;28;20089;-58
2023/03/13 13:30:36;;;;;;;3.13;1.50;;;;;;;;;;4986445;28;20030;-58
2023/03/13 13:33:17;;;;;;;5.43;1.47;;;;;;;;;;4984041;28;20034;-60
2023/03/13 13:35:43;;;;;;;3.05;1.52;;;;;;;;;;4983141;28;20586;-55
2023/03/13 13:38:17;;;;;;;3.15;1.40;;;;;;;;;;4985552;28;20042;-60
2023/03/13 13:41:06;;;;;;;3.70;1.65;;;;;;;;;;4983860;28;20031;-59
2023/03/13 13:43:35;;;;;;;1.48;1.30;;;;;;;;;;4984234;28;20050;-57
2023/03/13 13:46:01;;;;;;;3.15;1.40;;;;;;;;;;4982966;28;20046;-59
2023/03/13 13:48:27;;;;;;;5.63;1.93;;;;;;;;;;4980166;28;20030;-60
2023/03/13 13:51:09;;;;;;;3.23;1.57;;;;;;;;;;4983479;28;20049;-57
2023/03/13 13:53:44;;;;;;;4.45;1.80;;;;;;;;;;4983768;28;20811;-59
2023/03/13 13:56:28;;;;;;;3.00;1.52;;;;;;;;;;4983677;28;20043;-60
2023/03/13 13:59:12;;;;;;;4.30;1.40;;;;;;;;;;4986391;28;20042;-57
2023/03/13 14:01:39;;;;;;;4.70;1.60;;;;;;;;;;4984059;28;20030;-57
2023/03/13 14:04:12;;;;;;;4.20;1.63;;;;;;;;;;4983529;28;20022;-59
2023/03/13 14:06:37;;;;;;;2.08;1.40;;;;;;;;;;4980487;28;20030;-58
2023/03/13 14:09:29;;;;;;;4.83;1.57;;;;;;;;;;4983961;28;20026;-58
2023/03/13 14:11:55;;;;;;;4.95;1.40;;;;;;;;;;4972926;28;20038;-58
2023/03/13 14:14:21;;;;;;;4.22;1.55;;;;;;;;;;4984477;28;20486;-59
2023/03/13 14:16:51;;;;;;;2.93;1.60;;;;;;;;;;4986345;28;20081;-58
2023/03/13 14:19:43;;;;;;;2.72;1.25;;;;;;;;;;4984467;28;20049;-55
2023/03/13 14:22:09;;;;;;;3.72;1.48;;;;;;;;;;4982911;28;20038;-58
2023/03/13 14:24:35;;;;;;;3.17;1.40;;;;;;;;;;4984596;28;20040;-55
2023/03/13 14:27:00;;;;;;;4.60;1.57;;;;;;;;;;4982378;28;20030;-59
2023/03/13 14:29:25;;;;;;;2.88;1.42;;;;;;;;;;4984194;28;20069;-61
2023/03/13 14:31:58;;;;;;;4.13;1.33;;;;;;;;;;4990008;28;20372;-57
2023/03/13 14:34:23;;;;;;;3.72;1.50;;;;;;;;;;4981741;28;20784;-59
2023/03/13 14:36:49;;;;;;;3.43;1.40;;;;;;;;;;4985247;28;20068;-58
2023/03/13 14:39:19;;;;;;;2.67;1.23;;;;;;;;;;4979706;28;20698;-58
2023/03/13 14:41:46;;;;;;;2.97;1.60;;;;;;;;;;4979947;28;20027;-60
2023/03/13 14:44:23;;;;;;;9.10;1.70;;;;;;;;;;4978337;28;20022;-58
2023/03/13 14:46:51;;;;;;;3.92;1.52;;;;;;;;;;4978611;28;20049;-58
2023/03/13 14:49:19;;;;;;;4.07;1.90;;;;;;;;;;4980060;28;20045;-57
2023/03/13 14:51:45;;;;;;;3.20;1.60;;;;;;;;;;4980207;28;20030;-59
2023/03/13 14:54:25;;;;;;;4.70;1.90;;;;;;;;;;4981732;28;20030;-58
2023/03/13 14:57:01;;;;;;;3.60;1.80;;;;;;;;;;4996394;28;20220;-59
2023/03/13 14:59:26;;;;;;;7.43;1.83;;;;;;;;;;4980850;28;20022;-58